Main page
METAR-TAF:

METAR-TAF

Airports :

Palmas Airport

Palmas, Tocantins, Brazil

latitude: 10-17-24S, longitude: 048-21-28W, elevation: 236 m

Current weather observation

The report was made 36 minutes ago, at 07:00 UTC
Wind 14 kt from the East/Southeast
Temperature 23°C
Humidity 94%
Pressure 1011 hPa
Visibility: 6000 m
Scattered clouds at a height of 1600 ft
Scattered clouds at a height of 2700 ft, Cumulonimbus.
Broken clouds at a height of 7000 ft
thunderstorm, light rain

METAR: SBPJ 190700Z 12014KT 6000 -TSRA SCT016 SCT027CB BKN070 23/22 Q1011 RERA

Time: 04:36 (07:36 UTC)

Forecast

The report was made 5 hours and 36 minutes ago, at 02:00 UTC
Forecast valid from 19 at 06 UTC to 19 at 18 UTC
Wind 5 kt from the East/Southeast
Visibility: 7000 m
Scattered clouds at a height of 2500 ft
Becoming
from 19 at 12 UTC to 19 at 14 UTC
Wind 5 kt from the North/Northwest
Few clouds at a height of 2500 ft

TAF: SBPJ 190200Z 1906/1918 12005KT 7000 SCT025 TN24/1906Z TX33/1917Z BECMG 1912/1914 33005KT FEW025 RMK PDE

Weather observations and forecasts of more than 4000 airports (METAR and TAF reports).

The available stations are represented by yellow and red dots on the map.

Hover mouse over dot to see the name of the station.

Then click to see weather observations and forecasts.

To change the map : click on the green buttons with a black cross to zoom in, on the green button with a dash to zoom out, or on the green arrows for adjacent maps.


METAR-TAF: